Fort Ringgold, Texas
Current Conditions -  °F | °C
As of 3:35 AM on Monday 24 Nov 2014 (Local Time) from KEBG Reporting Station
Clear Clear  
Wind Chill: 58°   Ceiling: Unl
Heat Index: 58°   Visibility: 7mi
Dew Point: 55°   Wind: 0mph
Humidity: 89%   Direction: NA
Pressure: 29.79"   Gusts: NA
Location:  26.5735°N, 98.695°W
Report Text: KEBG 240935Z AUTO 00000KT 7SM CLR 14/13 A2979 RMK AO2 P0001 T01440126
Loading
Personal Weather Stations






























Interactive Weather Map New forecast layout! Learn more

10-Day Weather Forecast

Advertisements
Track Severe Weather on mobile